createdAt,value
2017-09-27T00:01:56.906Z,38.20
2017-09-27T00:04:23.146Z,38.43
2017-09-27T00:06:49.406Z,38.83
2017-09-27T00:09:15.672Z,37.17
2017-09-27T00:11:41.898Z,41.93
2017-09-27T00:14:08.147Z,36.67
2017-09-27T00:16:34.398Z,38.80
2017-09-27T00:19:00.642Z,34.60
2017-09-27T00:21:26.882Z,37.83
2017-09-27T00:23:53.133Z,38.03
2017-09-27T00:26:20.110Z,41.30
2017-09-27T00:28:46.342Z,37.07
2017-09-27T00:31:12.886Z,39.80
2017-09-27T00:33:39.130Z,36.07
2017-09-27T00:36:05.366Z,38.50
2017-09-27T00:38:31.627Z,36.50
2017-09-27T00:40:57.951Z,37.93
2017-09-27T00:43:24.210Z,41.70
2017-09-27T00:45:51.194Z,37.00
2017-09-27T00:48:17.422Z,40.40
2017-09-27T00:50:43.641Z,41.90
2017-09-27T00:53:09.899Z,38.50
2017-09-27T00:55:36.154Z,39.43
2017-09-27T00:58:02.495Z,38.87
2017-09-27T01:00:28.747Z,40.33
2017-09-27T01:02:55.727Z,39.80
2017-09-27T01:05:21.955Z,40.70
2017-09-27T01:07:48.214Z,39.63
2017-09-27T01:10:14.451Z,40.20
2017-09-27T01:12:40.698Z,36.40
2017-09-27T01:15:06.967Z,40.03
2017-09-27T01:17:33.204Z,39.57
2017-09-27T01:19:59.442Z,39.80
2017-09-27T01:22:25.694Z,42.40
2017-09-27T01:24:52.667Z,38.90
2017-09-27T01:27:18.903Z,37.80
2017-09-27T01:29:45.150Z,40.17
2017-09-27T01:32:11.698Z,39.53
2017-09-27T01:34:37.917Z,39.40
2017-09-27T01:37:04.210Z,38.80
2017-09-27T01:39:30.459Z,40.40
2017-09-27T01:41:56.694Z,41.20
2017-09-27T01:44:22.954Z,38.50
2017-09-27T01:46:49.933Z,40.20
2017-09-27T01:49:16.187Z,39.30
2017-09-27T01:51:42.514Z,38.63
2017-09-27T01:54:08.751Z,41.97
2017-09-27T01:56:35.026Z,37.87
2017-09-27T01:59:01.278Z,39.73
2017-09-27T02:01:28.344Z,40.13
2017-09-27T02:03:54.574Z,42.17
2017-09-27T02:06:20.813Z,41.60
2017-09-27T02:08:47.039Z,37.33
2017-09-27T02:11:13.283Z,40.20
2017-09-27T02:13:39.535Z,41.27
2017-09-27T02:16:05.762Z,39.50
2017-09-27T02:18:32.042Z,37.87
2017-09-27T02:20:58.438Z,39.27
2017-09-27T02:23:24.666Z,40.20
2017-09-27T02:25:50.914Z,42.63
2017-09-27T02:28:17.171Z,42.83
2017-09-27T02:30:43.402Z,38.17
2017-09-27T02:33:09.906Z,41.03
2017-09-27T02:35:36.257Z,41.60
2017-09-27T02:38:02.486Z,42.30
2017-09-27T02:40:28.739Z,41.43
2017-09-27T02:42:54.998Z,43.03
2017-09-27T02:45:21.259Z,40.37
2017-09-27T02:47:47.543Z,42.53
2017-09-27T02:50:13.786Z,43.40
2017-09-27T02:52:40.022Z,40.30
2017-09-27T02:55:06.251Z,43.70
2017-09-27T02:57:32.522Z,40.97
2017-09-27T02:59:58.764Z,43.53
2017-09-27T03:02:25.739Z,40.83
2017-09-27T03:04:52.812Z,42.07
2017-09-27T03:07:19.062Z,38.53
2017-09-27T03:09:45.306Z,42.20
2017-09-27T03:12:11.561Z,39.93
2017-09-27T03:14:38.542Z,40.83
2017-09-27T03:17:04.778Z,39.63
2017-09-27T03:19:31.011Z,42.93
2017-09-27T03:21:58.198Z,41.80
2017-09-27T03:24:24.438Z,41.17
2017-09-27T03:26:50.704Z,42.30
2017-09-27T03:29:16.941Z,37.50
2017-09-27T03:31:43.166Z,42.30
2017-09-27T03:34:13.923Z,41.87
2017-09-27T03:36:40.169Z,41.50
2017-09-27T03:39:06.426Z,41.60
2017-09-27T03:41:32.710Z,42.30
2017-09-27T03:43:58.943Z,42.93
2017-09-27T03:46:25.174Z,41.60
2017-09-27T03:48:51.422Z,38.20
2017-09-27T03:51:17.662Z,40.83
2017-09-27T03:53:43.926Z,41.50
2017-09-27T03:56:10.201Z,41.10
2017-09-27T03:58:36.431Z,40.60
2017-09-27T04:01:02.658Z,41.67
2017-09-27T04:03:28.915Z,41.23
2017-09-27T04:05:55.171Z,41.53
2017-09-27T04:08:21.422Z,42.17
2017-09-27T04:10:48.433Z,39.97
2017-09-27T04:13:14.678Z,42.47
2017-09-27T04:15:40.933Z,42.27
2017-09-27T04:18:07.186Z,40.90
2017-09-27T04:20:33.496Z,42.80
2017-09-27T04:23:00.498Z,41.20
2017-09-27T04:25:26.750Z,39.93
2017-09-27T04:27:52.992Z,40.77
2017-09-27T04:30:19.220Z,42.60
2017-09-27T04:32:45.581Z,42.07
2017-09-27T04:35:12.114Z,39.70
2017-09-27T04:37:39.089Z,41.90
2017-09-27T04:40:05.382Z,43.07
2017-09-27T04:42:32.410Z,43.70
2017-09-27T04:44:58.690Z,43.87
2017-09-27T04:47:24.954Z,42.70
2017-09-27T04:49:51.196Z,41.30
2017-09-27T04:52:17.447Z,42.20
2017-09-27T04:54:43.717Z,46.40
2017-09-27T04:57:09.961Z,41.20
2017-09-27T04:59:37.034Z,44.57
2017-09-27T05:02:03.338Z,45.30
2017-09-27T05:04:29.566Z,46.20
2017-09-27T05:06:55.810Z,42.17
2017-09-27T05:09:22.058Z,41.87
2017-09-27T05:11:48.306Z,43.43
2017-09-27T05:14:14.542Z,45.00
2017-09-27T05:16:40.798Z,43.87
2017-09-27T05:19:07.774Z,45.80
2017-09-27T05:21:34.007Z,42.10
2017-09-27T05:24:00.258Z,41.50
2017-09-27T05:26:26.494Z,41.80
2017-09-27T05:28:52.727Z,42.43
2017-09-27T05:31:18.975Z,42.83
2017-09-27T05:33:45.235Z,42.10
2017-09-27T05:36:12.186Z,43.37
2017-09-27T05:38:39.211Z,43.50
2017-09-27T05:41:05.454Z,44.13
2017-09-27T05:43:31.866Z,46.87
2017-09-27T05:45:58.131Z,46.20
2017-09-27T05:48:24.404Z,42.20
2017-09-27T05:50:50.621Z,45.97
2017-09-27T05:53:16.883Z,43.93
2017-09-27T05:55:43.129Z,44.60
2017-09-27T05:58:09.362Z,45.33
2017-09-27T06:00:35.619Z,43.07
2017-09-27T06:03:01.976Z,47.07
2017-09-27T06:05:28.246Z,44.80
2017-09-27T06:07:54.647Z,44.40
2017-09-27T06:10:20.888Z,44.47
2017-09-27T06:12:47.118Z,45.97
2017-09-27T06:15:13.379Z,43.37
2017-09-27T06:17:39.625Z,46.37
2017-09-27T06:20:05.874Z,46.07
2017-09-27T06:22:32.863Z,44.83
2017-09-27T06:24:59.091Z,43.13
2017-09-27T06:27:25.326Z,47.10
2017-09-27T06:29:51.570Z,49.03
2017-09-27T06:32:17.813Z,46.80
2017-09-27T06:34:44.055Z,46.70
2017-09-27T06:37:10.582Z,45.13
2017-09-27T06:39:36.857Z,46.60
2017-09-27T06:42:03.100Z,45.63
2017-09-27T06:44:29.358Z,43.27
2017-09-27T06:46:55.593Z,41.80
2017-09-27T06:49:21.875Z,47.57
2017-09-27T06:51:48.149Z,48.13
2017-09-27T06:54:14.390Z,43.50
2017-09-27T06:56:40.642Z,45.13
2017-09-27T06:59:06.939Z,48.10
2017-09-27T07:01:33.231Z,46.40
2017-09-27T07:03:59.479Z,46.17
2017-09-27T07:06:25.723Z,47.83
2017-09-27T07:08:51.954Z,48.60
2017-09-27T07:11:18.199Z,47.63
2017-09-27T07:13:44.462Z,45.13
2017-09-27T07:16:10.693Z,47.30
2017-09-27T07:21:09.938Z,47.27
2017-09-27T07:23:36.918Z,49.73
2017-09-27T07:26:03.321Z,47.03
2017-09-27T07:28:29.686Z,45.63
2017-09-27T07:30:56.056Z,45.23
2017-09-27T07:33:22.311Z,48.27
2017-09-27T07:35:48.599Z,43.03
2017-09-27T07:38:15.391Z,44.47
2017-09-27T07:40:42.366Z,48.23
2017-09-27T07:43:08.638Z,45.50
2017-09-27T07:45:34.868Z,46.47
2017-09-27T07:48:01.086Z,45.20
2017-09-27T07:50:27.415Z,47.27
2017-09-27T07:52:53.655Z,47.07
2017-09-27T07:55:19.884Z,51.30
2017-09-27T07:57:46.886Z,47.20
2017-09-27T08:00:13.127Z,46.70
2017-09-27T08:02:39.367Z,51.00
2017-09-27T08:05:05.638Z,53.13
2017-09-27T08:07:31.955Z,51.27
2017-09-27T08:09:58.204Z,47.30
2017-09-27T08:12:24.494Z,49.20
2017-09-27T08:14:50.735Z,50.57
2017-09-27T08:17:16.964Z,49.90
2017-09-27T08:19:43.207Z,49.00
2017-09-27T08:22:09.436Z,48.57
2017-09-27T08:24:35.674Z,52.13
2017-09-27T08:27:01.989Z,48.20
2017-09-27T08:29:28.238Z,51.00
2017-09-27T08:31:54.505Z,50.33
2017-09-27T08:34:20.754Z,48.57
2017-09-27T08:36:46.998Z,49.23
2017-09-27T08:39:13.711Z,49.10
2017-09-27T08:41:39.987Z,50.00
2017-09-27T08:44:06.213Z,50.67
2017-09-27T08:46:32.499Z,49.43
2017-09-27T08:48:58.794Z,49.27
2017-09-27T08:51:25.046Z,50.00
2017-09-27T08:53:51.335Z,49.70
2017-09-27T08:56:18.330Z,48.30
2017-09-27T08:58:44.574Z,46.23
2017-09-27T09:01:10.812Z,46.13
2017-09-27T09:03:37.058Z,46.87
2017-09-27T09:06:03.291Z,49.27
2017-09-27T09:08:29.539Z,46.10
2017-09-27T09:10:55.807Z,47.57
2017-09-27T09:13:22.062Z,46.70
2017-09-27T09:15:48.306Z,48.90
2017-09-27T09:18:15.335Z,47.70
2017-09-27T09:20:41.574Z,44.03
2017-09-27T09:23:07.803Z,44.17
2017-09-27T09:25:34.079Z,46.57
2017-09-27T09:28:00.322Z,46.77
2017-09-27T09:30:26.575Z,43.47
2017-09-27T09:32:52.827Z,43.23
2017-09-27T09:35:19.079Z,46.27
2017-09-27T09:37:46.067Z,46.57
2017-09-27T09:40:13.314Z,43.17
2017-09-27T09:42:39.560Z,44.00
2017-09-27T09:45:05.790Z,45.87
2017-09-27T09:47:32.101Z,44.60
2017-09-27T09:49:58.349Z,43.03
2017-09-27T09:52:24.594Z,42.33
2017-09-27T09:54:50.854Z,43.27
2017-09-27T09:57:17.110Z,44.83
2017-09-27T09:59:43.359Z,47.20
2017-09-27T10:02:09.635Z,45.60
2017-09-27T10:04:35.883Z,42.20
2017-09-27T10:07:03.200Z,42.67
2017-09-27T10:09:29.444Z,44.90
2017-09-27T10:11:55.717Z,43.43
2017-09-27T10:14:21.965Z,44.60
2017-09-27T10:16:48.230Z,45.77
2017-09-27T10:19:14.451Z,44.80
2017-09-27T10:21:40.694Z,41.40
2017-09-27T10:24:06.955Z,46.00
2017-09-27T10:26:33.226Z,43.70
2017-09-27T10:28:59.459Z,46.20
2017-09-27T10:31:25.734Z,47.13
2017-09-27T10:33:51.977Z,41.07
2017-09-27T10:36:18.217Z,44.63
2017-09-27T10:38:44.527Z,44.40
2017-09-27T10:41:11.158Z,45.80
2017-09-27T10:43:37.399Z,45.57
2017-09-27T10:46:03.661Z,42.27
2017-09-27T10:48:29.918Z,42.97
2017-09-27T10:50:56.150Z,43.67
2017-09-27T10:53:22.395Z,44.80
2017-09-27T10:55:48.641Z,42.10
2017-09-27T10:58:14.903Z,42.07
2017-09-27T11:00:41.154Z,46.03
2017-09-27T11:03:08.127Z,42.10
2017-09-27T11:05:34.370Z,41.70
2017-09-27T11:08:00.618Z,41.43
2017-09-27T11:10:26.898Z,41.63
2017-09-27T11:12:53.132Z,42.90
2017-09-27T11:15:19.377Z,39.23
2017-09-27T11:17:46.368Z,41.93
2017-09-27T11:20:12.601Z,40.43
2017-09-27T11:22:38.850Z,39.20
2017-09-27T11:25:05.106Z,41.37
2017-09-27T11:27:31.306Z,41.50
2017-09-27T11:29:57.598Z,43.43
2017-09-27T11:32:23.830Z,38.07
2017-09-27T11:34:50.075Z,37.20
2017-09-27T11:37:16.314Z,39.60
2017-09-27T11:39:42.550Z,39.27
2017-09-27T11:42:09.058Z,44.60
2017-09-27T11:44:35.299Z,42.03
2017-09-27T11:47:01.603Z,40.70
2017-09-27T11:49:27.841Z,40.40
2017-09-27T11:51:54.084Z,40.10
2017-09-27T11:54:20.855Z,36.50
2017-09-27T11:56:47.082Z,33.70
2017-09-27T11:59:13.338Z,38.40
2017-09-27T12:01:39.587Z,37.40
2017-09-27T12:04:05.818Z,37.83
2017-09-27T12:06:32.131Z,37.53
2017-09-27T12:09:05.351Z,36.40
2017-09-27T12:11:31.679Z,36.30
2017-09-27T12:13:58.646Z,36.13
2017-09-27T12:16:24.877Z,35.80
2017-09-27T12:18:51.135Z,36.43
2017-09-27T12:21:17.371Z,34.07
2017-09-27T12:23:43.603Z,33.70
2017-09-27T12:26:09.874Z,31.87
2017-09-27T12:28:36.117Z,33.23
2017-09-27T12:31:03.092Z,33.27
2017-09-27T12:33:29.329Z,34.40
2017-09-27T12:35:55.558Z,33.57
2017-09-27T12:38:21.812Z,33.30
2017-09-27T12:40:48.063Z,33.60
2017-09-27T12:43:14.585Z,33.80
2017-09-27T12:45:40.827Z,32.90
2017-09-27T12:48:07.078Z,34.33
2017-09-27T12:50:33.331Z,33.50
2017-09-27T12:52:59.573Z,33.43
2017-09-27T12:55:25.811Z,34.17
2017-09-27T12:57:52.090Z,33.10
2017-09-27T13:00:18.318Z,36.43
2017-09-27T13:02:44.574Z,34.83
2017-09-27T13:05:10.815Z,35.30
2017-09-27T13:07:37.786Z,34.27
2017-09-27T13:10:04.036Z,33.67
2017-09-27T13:12:30.267Z,37.30
2017-09-27T13:14:56.486Z,34.93
2017-09-27T13:17:22.726Z,36.67
2017-09-27T13:19:48.974Z,37.30
2017-09-27T13:22:15.218Z,36.50
2017-09-27T13:24:41.495Z,36.30
2017-09-27T13:27:07.824Z,40.17
2017-09-27T13:29:34.068Z,38.63
2017-09-27T13:32:00.327Z,35.80
2017-09-27T13:34:26.555Z,38.00
2017-09-27T13:36:52.818Z,38.57
2017-09-27T13:39:19.135Z,35.60
2017-09-27T13:41:45.439Z,39.80
2017-09-27T13:44:12.686Z,40.73
2017-09-27T13:46:38.935Z,35.50
2017-09-27T13:49:05.170Z,37.10
2017-09-27T13:51:31.883Z,39.80
2017-09-27T13:53:58.371Z,37.80
2017-09-27T13:56:24.793Z,41.37
2017-09-27T13:58:51.910Z,37.70
2017-09-27T14:01:18.162Z,36.73
2017-09-27T14:03:44.398Z,39.77
2017-09-27T14:06:10.932Z,41.67
2017-09-27T14:08:37.554Z,40.47
2017-09-27T14:11:03.783Z,43.07
2017-09-27T14:13:30.015Z,41.40
2017-09-27T14:15:56.267Z,43.90
2017-09-27T14:18:22.638Z,42.70
2017-09-27T14:20:49.227Z,40.97
2017-09-27T14:23:16.253Z,45.03
2017-09-27T14:25:42.778Z,41.50
2017-09-27T14:28:09.313Z,41.97
2017-09-27T14:30:35.940Z,42.27
2017-09-27T14:33:02.367Z,40.27
2017-09-27T14:35:28.627Z,41.57
2017-09-27T14:37:55.098Z,40.83
2017-09-27T14:40:22.255Z,42.47
2017-09-27T14:42:48.603Z,45.60
2017-09-27T14:45:16.516Z,36.90
2017-09-27T14:47:42.871Z,42.30
2017-09-27T14:50:09.150Z,43.17
2017-09-27T14:52:35.765Z,37.83
2017-09-27T14:55:02.336Z,42.97
2017-09-27T14:57:28.599Z,42.13
2017-09-27T14:59:55.976Z,44.50
2017-09-27T15:02:22.347Z,42.70
2017-09-27T15:04:48.586Z,43.40
2017-09-27T15:07:14.859Z,44.63
2017-09-27T15:09:41.427Z,40.20
2017-09-27T15:12:08.172Z,41.03
2017-09-27T15:14:34.761Z,44.73
2017-09-27T15:17:01.251Z,42.13
2017-09-27T15:19:27.662Z,46.20
2017-09-27T15:21:53.942Z,43.27
2017-09-27T15:24:20.797Z,45.50
2017-09-27T15:26:47.920Z,44.50
2017-09-27T15:29:15.061Z,43.90
2017-09-27T15:31:41.656Z,44.63
2017-09-27T15:34:08.190Z,45.40
2017-09-27T15:36:35.187Z,45.93
2017-09-27T15:39:01.422Z,42.57
2017-09-27T15:41:27.766Z,48.20
2017-09-27T15:43:54.422Z,43.33
2017-09-27T15:46:21.023Z,47.60
2017-09-27T15:48:48.172Z,49.77
2017-09-27T15:51:14.451Z,44.87
2017-09-27T15:53:40.913Z,44.83
2017-09-27T15:56:07.894Z,48.37
2017-09-27T15:58:34.152Z,43.30
2017-09-27T16:01:00.439Z,49.40
2017-09-27T16:03:26.678Z,47.33
2017-09-27T16:05:52.922Z,44.10
2017-09-27T16:08:19.157Z,45.77
2017-09-27T16:10:45.432Z,49.50
2017-09-27T16:13:11.871Z,50.77
2017-09-27T16:15:39.177Z,47.67
2017-09-27T16:18:05.571Z,49.27
2017-09-27T16:20:32.984Z,48.13
2017-09-27T16:23:00.171Z,52.20
2017-09-27T16:25:26.470Z,49.93
2017-09-27T16:27:52.740Z,52.47
2017-09-27T16:30:18.974Z,53.60
2017-09-27T16:32:45.302Z,52.53
2017-09-27T16:35:11.886Z,51.07
2017-09-27T16:37:38.930Z,50.77
2017-09-27T16:40:05.158Z,50.20
2017-09-27T16:42:31.515Z,52.47
2017-09-27T16:44:57.811Z,50.57
2017-09-27T16:47:24.335Z,48.63
2017-09-27T16:49:51.327Z,55.00
2017-09-27T16:52:17.563Z,54.53
2017-09-27T16:54:44.027Z,56.77
2017-09-27T16:57:10.363Z,50.23
2017-09-27T16:59:36.591Z,54.33
2017-09-27T17:02:03.048Z,50.50
2017-09-27T17:04:29.744Z,54.67
2017-09-27T17:06:56.235Z,51.53
2017-09-27T17:09:23.559Z,53.53
2017-09-27T17:11:49.835Z,50.37
2017-09-27T17:14:16.583Z,54.13
2017-09-27T17:16:43.011Z,50.07
2017-09-27T17:19:09.251Z,54.60
2017-09-27T17:21:35.505Z,51.20
2017-09-27T17:24:02.611Z,56.30
2017-09-27T17:26:28.863Z,55.87
2017-09-27T17:28:55.644Z,51.27
2017-09-27T17:31:22.319Z,43.80
2017-09-27T17:33:49.332Z,48.60
2017-09-27T17:36:15.984Z,50.40
2017-09-27T17:38:43.302Z,52.53
2017-09-27T17:41:09.865Z,50.20
2017-09-27T17:43:37.941Z,50.57
2017-09-27T17:46:04.418Z,53.50
2017-09-27T17:48:31.155Z,47.97
2017-09-27T17:50:57.475Z,48.67
2017-09-27T17:53:23.722Z,46.40
2017-09-27T17:55:50.879Z,45.67
2017-09-27T17:58:22.452Z,48.97
2017-09-27T18:00:49.528Z,47.50
2017-09-27T18:03:18.805Z,49.43
2017-09-27T18:05:53.374Z,51.03
2017-09-27T18:08:26.990Z,50.33
2017-09-27T18:10:59.405Z,48.23
2017-09-27T18:13:36.691Z,53.17
2017-09-27T18:16:08.951Z,51.57
2017-09-27T18:18:38.751Z,48.33
2017-09-27T18:21:06.690Z,45.83
2017-09-27T18:23:33.023Z,47.30
2017-09-27T18:25:59.331Z,47.23
2017-09-27T18:28:31.290Z,47.83
2017-09-27T18:30:59.386Z,50.97
2017-09-27T18:33:26.810Z,52.00
2017-09-27T18:35:53.054Z,51.90
2017-09-27T18:38:19.387Z,51.43
2017-09-27T18:40:45.689Z,48.03
2017-09-27T18:43:13.123Z,45.57
2017-09-27T18:45:39.473Z,48.20
2017-09-27T18:48:05.800Z,50.57
2017-09-27T18:50:33.571Z,48.50
2017-09-27T18:52:59.940Z,48.00
2017-09-27T18:55:27.069Z,47.50
2017-09-27T18:57:53.353Z,49.17
2017-09-27T19:00:20.516Z,48.37
2017-09-27T19:02:46.794Z,47.60
2017-09-27T19:05:16.053Z,51.37
2017-09-27T19:07:46.599Z,49.37
2017-09-27T19:10:13.992Z,49.13
2017-09-27T19:12:40.239Z,52.97
2017-09-27T19:15:15.143Z,49.50
2017-09-27T19:17:41.908Z,47.97
2017-09-27T19:20:09.215Z,50.60
2017-09-27T19:22:36.465Z,49.53
2017-09-27T19:25:03.397Z,52.73
2017-09-27T19:27:33.173Z,50.30
2017-09-27T19:30:02.577Z,47.43
2017-09-27T19:32:28.956Z,51.70
2017-09-27T19:34:56.813Z,51.47
2017-09-27T19:37:23.311Z,51.40
2017-09-27T19:39:52.851Z,53.77
2017-09-27T19:42:19.157Z,52.27
2017-09-27T19:44:46.420Z,53.87
2017-09-27T19:47:13.091Z,52.20
2017-09-27T19:49:39.496Z,53.60
2017-09-27T19:52:07.406Z,52.90
2017-09-27T19:54:35.910Z,55.90
2017-09-27T19:57:02.501Z,54.67
2017-09-27T19:59:29.071Z,51.93
2017-09-27T20:01:55.700Z,53.00
2017-09-27T20:04:22.817Z,54.77
2017-09-27T20:06:49.192Z,54.40
2017-09-27T20:09:15.493Z,53.40
2017-09-27T20:11:43.545Z,53.40
2017-09-27T20:14:10.102Z,53.20
2017-09-27T20:16:36.580Z,55.40
2017-09-27T20:19:02.933Z,59.60
2017-09-27T20:21:32.064Z,53.67
2017-09-27T20:24:02.723Z,55.80
2017-09-27T20:26:30.235Z,51.70
2017-09-27T20:28:56.758Z,50.00
2017-09-27T20:31:23.130Z,51.10
2017-09-27T20:33:49.474Z,53.97
2017-09-27T20:36:16.219Z,53.80
2017-09-27T20:38:43.099Z,50.97
2017-09-27T20:41:09.767Z,48.27
2017-09-27T20:43:36.865Z,48.77
2017-09-27T20:46:03.182Z,47.67
2017-09-27T20:48:29.749Z,45.60
2017-09-27T20:50:56.172Z,45.27
2017-09-27T20:53:22.993Z,46.63
2017-09-27T20:55:49.324Z,40.77
2017-09-27T20:58:15.620Z,42.47
2017-09-27T21:00:42.254Z,41.87
2017-09-27T21:03:08.607Z,43.57
2017-09-27T21:05:34.862Z,39.37
2017-09-27T21:08:05.205Z,39.20
2017-09-27T21:10:31.590Z,40.07
2017-09-27T21:12:57.911Z,38.20
2017-09-27T21:15:24.178Z,37.10
2017-09-27T21:17:50.439Z,36.80
2017-09-27T21:20:16.702Z,38.07
2017-09-27T21:22:42.998Z,36.23
2017-09-27T21:25:09.317Z,36.73
2017-09-27T21:27:36.367Z,34.20
2017-09-27T21:30:03.370Z,34.63
2017-09-27T21:32:29.595Z,33.57
2017-09-27T21:34:55.859Z,34.10
2017-09-27T21:37:22.134Z,33.40
2017-09-27T21:39:48.367Z,31.93
2017-09-27T21:42:14.633Z,32.30
2017-09-27T21:44:40.926Z,31.07
2017-09-27T21:47:07.155Z,31.80
2017-09-27T21:49:33.442Z,34.60
2017-09-27T21:51:59.778Z,31.97
2017-09-27T21:54:26.124Z,29.17
2017-09-27T21:56:52.547Z,31.30
2017-09-27T21:59:18.790Z,31.47
2017-09-27T22:01:45.039Z,29.27
2017-09-27T22:04:12.161Z,29.20
2017-09-27T22:06:38.400Z,30.00
2017-09-27T22:09:05.423Z,31.73
2017-09-27T22:11:31.694Z,31.43
2017-09-27T22:13:58.839Z,30.37
2017-09-27T22:16:25.093Z,30.13
2017-09-27T22:18:51.346Z,29.43
2017-09-27T22:21:17.596Z,30.53
2017-09-27T22:23:43.847Z,30.57
2017-09-27T22:26:10.142Z,30.10
2017-09-27T22:28:36.382Z,30.90
2017-09-27T22:31:02.624Z,30.40
2017-09-27T22:33:28.871Z,29.50
2017-09-27T22:35:55.106Z,27.20
2017-09-27T22:38:21.349Z,29.60
2017-09-27T22:40:47.606Z,30.20
2017-09-27T22:43:13.860Z,27.20
2017-09-27T22:45:40.134Z,30.17
2017-09-27T22:48:06.414Z,28.60
2017-09-27T22:50:32.690Z,28.97
2017-09-27T22:52:58.977Z,26.73
2017-09-27T22:55:25.366Z,26.33
2017-09-27T22:57:51.615Z,25.80
2017-09-27T23:00:17.867Z,27.73
2017-09-27T23:02:44.150Z,27.87
2017-09-27T23:05:10.402Z,27.30
2017-09-27T23:07:36.639Z,28.20
2017-09-27T23:10:03.651Z,28.37
2017-09-27T23:12:29.906Z,25.60
2017-09-27T23:14:56.152Z,28.00
2017-09-27T23:17:22.433Z,27.37
2017-09-27T23:19:48.733Z,27.00
2017-09-27T23:22:14.975Z,27.07
2017-09-27T23:24:41.258Z,25.90
2017-09-27T23:27:07.505Z,25.43
2017-09-27T23:29:34.489Z,27.87
2017-09-27T23:32:00.738Z,27.77
2017-09-27T23:34:27.026Z,26.27
2017-09-27T23:36:54.006Z,25.80
2017-09-27T23:39:20.327Z,28.60
2017-09-27T23:41:49.578Z,25.20
2017-09-27T23:44:15.834Z,27.00
2017-09-27T23:46:42.139Z,28.73
2017-09-27T23:49:11.481Z,26.30
2017-09-27T23:51:40.259Z,26.07
2017-09-27T23:54:07.622Z,26.60
2017-09-27T23:56:34.693Z,26.43
2017-09-27T23:59:03.687Z,27.23
